Home PIREPS Pireps

Flight BEL12047TR

  • Submitted By: AndrĂ© Vincent
  • Departure Airport: Monument Valley Airport (UT25)
  • Arrival Airport: Los Angeles International Airport (KLAX)
  • Aircraft: YOUR CHOICE (YC)
  • Flight Time: 03.07
  • Date Submitted: 04/10/2017
  • Status: Accepted
Flight Details
Gross Revenue:
(25 load / € 0.00 per unit
€ 0.00
Fuel Cost:
(177 fuel used @ 5.1 / unit)
€ 902.70

Additional Log Information:

View Log

Aircraft Used in flight is Beech Baron 58 Paint2
13:29 Brakes are On
13:30 Brakes are Released
13:34 You Took off @ 86 Knots and Flaps at Position 1
Departure Weather
No METAR available for UT25.
13:34 Landing Gear Up @ 66 Knots and 5480 Feet
13:34 Stalling
13:34 Recovered from Stall
15:01 Below FL100 you need to turn on the landing lights
16:27 Landing Gear Down @ 89 Knots and 1790 Feet
16:32 You Landed @ 68 Knots and with -400 Vertical Speed
Arrival Weather
KLAX 041353Z 35006KT 10SM FEW010 16/13 A2998 RMK AO2 SLP150 T01610133rn
16:35 Brakes are On
16:36 Brussels Bel-Track1.0.1.2

Route Map

Corporate About Us Our Team Vacancies Information Fleet Route Network Rules and Regulations Operations Flight Schedules Event Center Tours Partners IVAO Vatsim Acars dev FSCB

fb Users Online Belgium Jos Viville,
2 Pilot(s) and 171 Guest(s) Online
CMS by phpVMS - Design by Crazycreatives.com - Copyright © 2018 - Brussels Airlines Virtual